sensor_id;sensor_type;location;lat;lon;timestamp;P1;durP1;ratioP1;P2;durP2;ratioP2
4857;SDS011;58975;51.978;8.472;2022-11-27T00:01:23;21.55;;;12.07;;
4857;SDS011;58975;51.978;8.472;2022-11-27T00:06:27;21.10;;;10.50;;
4857;SDS011;58975;51.978;8.472;2022-11-27T00:11:25;23.85;;;10.68;;
4857;SDS011;58975;51.978;8.472;2022-11-27T00:21:23;22.05;;;10.75;;
4857;SDS011;58975;51.978;8.472;2022-11-27T00:26:22;22.30;;;9.13;;
4857;SDS011;58975;51.978;8.472;2022-11-27T00:31:23;23.17;;;10.27;;
4857;SDS011;58975;51.978;8.472;2022-11-27T00:36:23;18.48;;;9.88;;
4857;SDS011;58975;51.978;8.472;2022-11-27T00:41:22;21.95;;;9.43;;
4857;SDS011;58975;51.978;8.472;2022-11-27T00:46:21;24.17;;;9.88;;
4857;SDS011;58975;51.978;8.472;2022-11-27T00:51:24;20.33;;;9.13;;
4857;SDS011;58975;51.978;8.472;2022-11-27T00:56:23;23.60;;;9.32;;
4857;SDS011;58975;51.978;8.472;2022-11-27T01:01:43;17.42;;;8.30;;
4857;SDS011;58975;51.978;8.472;2022-11-27T01:06:40;21.30;;;8.68;;
4857;SDS011;58975;51.978;8.472;2022-11-27T01:11:37;17.38;;;7.80;;
4857;SDS011;58975;51.978;8.472;2022-11-27T01:16:34;19.88;;;8.63;;
4857;SDS011;58975;51.978;8.472;2022-11-27T01:21:38;19.20;;;8.20;;
4857;SDS011;58975;51.978;8.472;2022-11-27T01:26:34;15.90;;;8.38;;
4857;SDS011;58975;51.978;8.472;2022-11-27T01:31:31;15.82;;;7.03;;
4857;SDS011;58975;51.978;8.472;2022-11-27T01:36:29;14.07;;;7.67;;
4857;SDS011;58975;51.978;8.472;2022-11-27T01:41:27;18.00;;;7.53;;
4857;SDS011;58975;51.978;8.472;2022-11-27T01:51:36;12.35;;;6.53;;
4857;SDS011;58975;51.978;8.472;2022-11-27T01:57:02;14.90;;;7.88;;
4857;SDS011;58975;51.978;8.472;2022-11-27T02:02:02;11.27;;;6.68;;
4857;SDS011;58975;51.978;8.472;2022-11-27T02:06:59;17.35;;;7.53;;
4857;SDS011;58975;51.978;8.472;2022-11-27T02:22:59;18.23;;;8.77;;
4857;SDS011;58975;51.978;8.472;2022-11-27T02:33:49;24.08;;;9.35;;
4857;SDS011;58975;51.978;8.472;2022-11-27T02:38:52;16.02;;;7.28;;
4857;SDS011;58975;51.978;8.472;2022-11-27T02:43:54;21.88;;;6.90;;
4857;SDS011;58975;51.978;8.472;2022-11-27T02:54:02;18.60;;;7.40;;
4857;SDS011;58975;51.978;8.472;2022-11-27T02:59:02;20.63;;;7.90;;
4857;SDS011;58975;51.978;8.472;2022-11-27T03:04:01;17.08;;;8.68;;
4857;SDS011;58975;51.978;8.472;2022-11-27T03:09:07;16.65;;;7.82;;
4857;SDS011;58975;51.978;8.472;2022-11-27T03:14:08;17.63;;;8.18;;
4857;SDS011;58975;51.978;8.472;2022-11-27T03:19:14;15.98;;;8.13;;
4857;SDS011;58975;51.978;8.472;2022-11-27T03:24:12;20.58;;;8.20;;
4857;SDS011;58975;51.978;8.472;2022-11-27T03:29:10;16.80;;;7.72;;
4857;SDS011;58975;51.978;8.472;2022-11-27T03:34:10;21.55;;;8.85;;
4857;SDS011;58975;51.978;8.472;2022-11-27T03:39:07;22.08;;;8.65;;
4857;SDS011;58975;51.978;8.472;2022-11-27T03:44:21;18.05;;;9.23;;
4857;SDS011;58975;51.978;8.472;2022-11-27T03:54:46;18.65;;;8.98;;
4857;SDS011;58975;51.978;8.472;2022-11-27T03:59:48;22.63;;;10.27;;
4857;SDS011;58975;51.978;8.472;2022-11-27T04:04:49;21.05;;;9.93;;
4857;SDS011;58975;51.978;8.472;2022-11-27T04:09:46;25.15;;;10.27;;
4857;SDS011;58975;51.978;8.472;2022-11-27T04:14:42;20.73;;;10.45;;
4857;SDS011;58975;51.978;8.472;2022-11-27T04:19:38;25.77;;;11.18;;
4857;SDS011;58975;51.978;8.472;2022-11-27T04:24:35;23.42;;;10.52;;
4857;SDS011;58975;51.978;8.472;2022-11-27T04:29:31;30.17;;;10.20;;
4857;SDS011;58975;51.978;8.472;2022-11-27T04:34:27;24.15;;;10.30;;
4857;SDS011;58975;51.978;8.472;2022-11-27T04:39:24;25.10;;;11.38;;
4857;SDS011;58975;51.978;8.472;2022-11-27T04:44:20;20.77;;;10.82;;
4857;SDS011;58975;51.978;8.472;2022-11-27T04:49:17;23.02;;;10.82;;
4857;SDS011;58975;51.978;8.472;2022-11-27T04:54:14;24.63;;;9.50;;
4857;SDS011;58975;51.978;8.472;2022-11-27T04:59:10;22.45;;;9.75;;
4857;SDS011;58975;51.978;8.472;2022-11-27T05:04:06;23.25;;;9.90;;
4857;SDS011;58975;51.978;8.472;2022-11-27T05:09:03;20.95;;;10.57;;
4857;SDS011;58975;51.978;8.472;2022-11-27T05:13:59;21.35;;;9.32;;
4857;SDS011;58975;51.978;8.472;2022-11-27T05:19:17;20.27;;;9.02;;
4857;SDS011;58975;51.978;8.472;2022-11-27T05:24:16;29.20;;;9.90;;
4857;SDS011;58975;51.978;8.472;2022-11-27T05:29:13;22.83;;;10.82;;
4857;SDS011;58975;51.978;8.472;2022-11-27T05:34:11;25.33;;;11.13;;
4857;SDS011;58975;51.978;8.472;2022-11-27T05:39:08;29.35;;;10.75;;
4857;SDS011;58975;51.978;8.472;2022-11-27T05:44:05;21.77;;;10.10;;
4857;SDS011;58975;51.978;8.472;2022-11-27T05:49:02;22.67;;;10.23;;
4857;SDS011;58975;51.978;8.472;2022-11-27T05:53:58;23.42;;;11.10;;
4857;SDS011;58975;51.978;8.472;2022-11-27T05:58:54;22.10;;;10.90;;
4857;SDS011;58975;51.978;8.472;2022-11-27T06:03:51;28.10;;;10.35;;
4857;SDS011;58975;51.978;8.472;2022-11-27T06:08:47;21.40;;;10.07;;
4857;SDS011;58975;51.978;8.472;2022-11-27T06:13:44;23.80;;;10.23;;
4857;SDS011;58975;51.978;8.472;2022-11-27T06:18:42;18.17;;;9.55;;
4857;SDS011;58975;51.978;8.472;2022-11-27T06:23:39;19.42;;;8.98;;
4857;SDS011;58975;51.978;8.472;2022-11-27T06:28:37;22.40;;;9.10;;
4857;SDS011;58975;51.978;8.472;2022-11-27T06:33:33;22.85;;;10.43;;
4857;SDS011;58975;51.978;8.472;2022-11-27T06:38:30;21.23;;;9.85;;
4857;SDS011;58975;51.978;8.472;2022-11-27T06:43:28;15.70;;;9.07;;
4857;SDS011;58975;51.978;8.472;2022-11-27T06:48:24;17.88;;;8.25;;
4857;SDS011;58975;51.978;8.472;2022-11-27T06:53:21;19.45;;;9.07;;
4857;SDS011;58975;51.978;8.472;2022-11-27T06:58:17;16.55;;;8.82;;
4857;SDS011;58975;51.978;8.472;2022-11-27T07:03:14;24.15;;;9.60;;
4857;SDS011;58975;51.978;8.472;2022-11-27T07:08:10;24.63;;;8.48;;
4857;SDS011;58975;51.978;8.472;2022-11-27T07:13:06;17.38;;;8.80;;
4857;SDS011;58975;51.978;8.472;2022-11-27T07:18:03;24.30;;;8.60;;
4857;SDS011;58975;51.978;8.472;2022-11-27T07:22:59;18.77;;;8.70;;
4857;SDS011;58975;51.978;8.472;2022-11-27T07:27:56;20.67;;;8.45;;
4857;SDS011;58975;51.978;8.472;2022-11-27T07:32:52;22.80;;;8.60;;
4857;SDS011;58975;51.978;8.472;2022-11-27T07:37:49;14.48;;;7.47;;
4857;SDS011;58975;51.978;8.472;2022-11-27T07:42:45;16.70;;;8.05;;
4857;SDS011;58975;51.978;8.472;2022-11-27T07:47:41;20.55;;;7.95;;
4857;SDS011;58975;51.978;8.472;2022-11-27T07:52:38;17.98;;;8.45;;
4857;SDS011;58975;51.978;8.472;2022-11-27T07:57:37;18.58;;;7.70;;
4857;SDS011;58975;51.978;8.472;2022-11-27T08:02:33;16.88;;;7.32;;
4857;SDS011;58975;51.978;8.472;2022-11-27T08:07:30;18.20;;;7.90;;
4857;SDS011;58975;51.978;8.472;2022-11-27T08:12:26;18.48;;;8.18;;
4857;SDS011;58975;51.978;8.472;2022-11-27T08:17:22;12.90;;;7.22;;
4857;SDS011;58975;51.978;8.472;2022-11-27T08:22:19;13.57;;;7.32;;
4857;SDS011;58975;51.978;8.472;2022-11-27T08:27:15;13.88;;;7.40;;
4857;SDS011;58975;51.978;8.472;2022-11-27T08:32:12;12.18;;;7.13;;
4857;SDS011;58975;51.978;8.472;2022-11-27T08:37:08;11.80;;;6.95;;
4857;SDS011;58975;51.978;8.472;2022-11-27T08:42:05;13.25;;;6.70;;
4857;SDS011;58975;51.978;8.472;2022-11-27T08:47:01;13.27;;;7.05;;
4857;SDS011;58975;51.978;8.472;2022-11-27T08:51:57;13.00;;;6.65;;
4857;SDS011;58975;51.978;8.472;2022-11-27T08:56:54;21.55;;;7.00;;
4857;SDS011;58975;51.978;8.472;2022-11-27T09:01:50;16.45;;;8.50;;
4857;SDS011;58975;51.978;8.472;2022-11-27T09:06:47;13.32;;;7.15;;
4857;SDS011;58975;51.978;8.472;2022-11-27T09:11:54;11.55;;;6.03;;
4857;SDS011;58975;51.978;8.472;2022-11-27T09:16:51;14.15;;;5.88;;
4857;SDS011;58975;51.978;8.472;2022-11-27T09:21:49;8.30;;;5.95;;
4857;SDS011;58975;51.978;8.472;2022-11-27T09:26:46;9.00;;;5.57;;
4857;SDS011;58975;51.978;8.472;2022-11-27T09:31:42;11.25;;;5.13;;
4857;SDS011;58975;51.978;8.472;2022-11-27T09:36:39;10.15;;;5.15;;
4857;SDS011;58975;51.978;8.472;2022-11-27T09:41:54;10.50;;;5.45;;
4857;SDS011;58975;51.978;8.472;2022-11-27T09:46:52;10.30;;;4.88;;
4857;SDS011;58975;51.978;8.472;2022-11-27T09:56:54;10.73;;;5.55;;
4857;SDS011;58975;51.978;8.472;2022-11-27T10:01:51;11.98;;;5.88;;
4857;SDS011;58975;51.978;8.472;2022-11-27T10:06:57;11.52;;;4.90;;
4857;SDS011;58975;51.978;8.472;2022-11-27T10:12:27;12.82;;;5.03;;
4857;SDS011;58975;51.978;8.472;2022-11-27T10:17:54;12.23;;;5.53;;
4857;SDS011;58975;51.978;8.472;2022-11-27T10:23:17;9.82;;;4.80;;
4857;SDS011;58975;51.978;8.472;2022-11-27T10:28:23;7.03;;;4.30;;
4857;SDS011;58975;51.978;8.472;2022-11-27T10:33:28;6.90;;;3.80;;
4857;SDS011;58975;51.978;8.472;2022-11-27T10:38:32;8.63;;;4.53;;
4857;SDS011;58975;51.978;8.472;2022-11-27T10:43:33;9.23;;;4.30;;
4857;SDS011;58975;51.978;8.472;2022-11-27T10:48:31;7.13;;;3.67;;
4857;SDS011;58975;51.978;8.472;2022-11-27T10:53:32;9.93;;;3.23;;
4857;SDS011;58975;51.978;8.472;2022-11-27T11:04:05;7.38;;;3.83;;
4857;SDS011;58975;51.978;8.472;2022-11-27T11:14:23;8.27;;;3.38;;
4857;SDS011;58975;51.978;8.472;2022-11-27T11:19:27;6.25;;;3.70;;
4857;SDS011;58975;51.978;8.472;2022-11-27T11:24:29;7.80;;;3.23;;
4857;SDS011;58975;51.978;8.472;2022-11-27T11:29:40;2.90;;;2.25;;
4857;SDS011;58975;51.978;8.472;2022-11-27T11:34:49;7.10;;;3.30;;
4857;SDS011;58975;51.978;8.472;2022-11-27T11:50:10;5.97;;;3.17;;
4857;SDS011;58975;51.978;8.472;2022-11-27T11:55:19;6.15;;;2.55;;
4857;SDS011;58975;51.978;8.472;2022-11-27T12:00:22;6.00;;;2.42;;
4857;SDS011;58975;51.978;8.472;2022-11-27T12:15:48;4.05;;;2.30;;
4857;SDS011;58975;51.978;8.472;2022-11-27T12:42:42;5.93;;;2.15;;
4857;SDS011;58975;51.978;8.472;2022-11-27T12:52:28;4.18;;;1.85;;
4857;SDS011;58975;51.978;8.472;2022-11-27T13:02:37;3.85;;;1.67;;
4857;SDS011;58975;51.978;8.472;2022-11-27T13:07:42;4.82;;;1.70;;
4857;SDS011;58975;51.978;8.472;2022-11-27T13:12:52;4.47;;;1.70;;
4857;SDS011;58975;51.978;8.472;2022-11-27T13:17:53;7.55;;;2.33;;
4857;SDS011;58975;51.978;8.472;2022-11-27T13:22:55;4.70;;;1.42;;
4857;SDS011;58975;51.978;8.472;2022-11-27T13:27:52;6.13;;;1.60;;
4857;SDS011;58975;51.978;8.472;2022-11-27T13:32:59;4.05;;;1.27;;
4857;SDS011;58975;51.978;8.472;2022-11-27T13:38:00;4.30;;;1.50;;
4857;SDS011;58975;51.978;8.472;2022-11-27T13:43:04;3.13;;;1.55;;
4857;SDS011;58975;51.978;8.472;2022-11-27T13:48:18;6.25;;;1.58;;
4857;SDS011;58975;51.978;8.472;2022-11-27T13:53:32;3.38;;;1.83;;
4857;SDS011;58975;51.978;8.472;2022-11-27T13:58:32;2.20;;;1.58;;
4857;SDS011;58975;51.978;8.472;2022-11-27T14:03:31;3.78;;;1.13;;
4857;SDS011;58975;51.978;8.472;2022-11-27T14:08:34;3.00;;;1.63;;
4857;SDS011;58975;51.978;8.472;2022-11-27T14:13:31;5.50;;;1.70;;
4857;SDS011;58975;51.978;8.472;2022-11-27T14:18:32;2.90;;;1.65;;
4857;SDS011;58975;51.978;8.472;2022-11-27T14:23:33;3.95;;;1.48;;
4857;SDS011;58975;51.978;8.472;2022-11-27T14:28:33;3.47;;;1.63;;
4857;SDS011;58975;51.978;8.472;2022-11-27T14:33:32;3.05;;;1.67;;
4857;SDS011;58975;51.978;8.472;2022-11-27T14:38:50;2.72;;;1.52;;
4857;SDS011;58975;51.978;8.472;2022-11-27T14:43:46;5.47;;;1.30;;
4857;SDS011;58975;51.978;8.472;2022-11-27T14:53:39;4.05;;;1.30;;
4857;SDS011;58975;51.978;8.472;2022-11-27T14:58:37;4.47;;;1.67;;
4857;SDS011;58975;51.978;8.472;2022-11-27T15:03:35;6.75;;;2.40;;
4857;SDS011;58975;51.978;8.472;2022-11-27T15:08:33;2.78;;;1.77;;
4857;SDS011;58975;51.978;8.472;2022-11-27T15:18:30;4.85;;;1.98;;
4857;SDS011;58975;51.978;8.472;2022-11-27T15:23:30;3.28;;;1.50;;
4857;SDS011;58975;51.978;8.472;2022-11-27T15:28:33;7.55;;;1.50;;
4857;SDS011;58975;51.978;8.472;2022-11-27T15:33:31;4.22;;;1.92;;
4857;SDS011;58975;51.978;8.472;2022-11-27T15:38:29;4.33;;;1.23;;
4857;SDS011;58975;51.978;8.472;2022-11-27T15:43:26;4.63;;;1.60;;
4857;SDS011;58975;51.978;8.472;2022-11-27T15:48:22;4.60;;;1.88;;
4857;SDS011;58975;51.978;8.472;2022-11-27T15:53:19;3.42;;;1.70;;
4857;SDS011;58975;51.978;8.472;2022-11-27T15:58:15;1.90;;;1.40;;
4857;SDS011;58975;51.978;8.472;2022-11-27T16:03:12;3.45;;;1.42;;
4857;SDS011;58975;51.978;8.472;2022-11-27T16:08:09;4.50;;;1.77;;
4857;SDS011;58975;51.978;8.472;2022-11-27T16:13:09;2.90;;;1.40;;
4857;SDS011;58975;51.978;8.472;2022-11-27T16:18:05;2.42;;;1.50;;
4857;SDS011;58975;51.978;8.472;2022-11-27T16:23:02;5.38;;;1.60;;
4857;SDS011;58975;51.978;8.472;2022-11-27T16:27:58;3.20;;;1.23;;
4857;SDS011;58975;51.978;8.472;2022-11-27T16:32:58;5.63;;;1.48;;
4857;SDS011;58975;51.978;8.472;2022-11-27T16:37:54;2.85;;;1.40;;
4857;SDS011;58975;51.978;8.472;2022-11-27T16:42:51;2.95;;;1.40;;
4857;SDS011;58975;51.978;8.472;2022-11-27T16:47:47;1.52;;;1.20;;
4857;SDS011;58975;51.978;8.472;2022-11-27T16:52:44;2.95;;;1.60;;
4857;SDS011;58975;51.978;8.472;2022-11-27T16:57:47;3.50;;;1.65;;
4857;SDS011;58975;51.978;8.472;2022-11-27T17:02:44;4.90;;;1.65;;
4857;SDS011;58975;51.978;8.472;2022-11-27T17:07:40;3.05;;;1.60;;
4857;SDS011;58975;51.978;8.472;2022-11-27T17:12:37;4.03;;;1.48;;
4857;SDS011;58975;51.978;8.472;2022-11-27T17:17:34;2.67;;;1.52;;
4857;SDS011;58975;51.978;8.472;2022-11-27T17:22:35;3.85;;;1.65;;
4857;SDS011;58975;51.978;8.472;2022-11-27T17:27:31;2.28;;;1.23;;
4857;SDS011;58975;51.978;8.472;2022-11-27T17:32:29;5.70;;;1.70;;
4857;SDS011;58975;51.978;8.472;2022-11-27T17:37:25;3.72;;;1.75;;
4857;SDS011;58975;51.978;8.472;2022-11-27T17:42:22;3.90;;;1.80;;
4857;SDS011;58975;51.978;8.472;2022-11-27T17:47:18;6.07;;;1.90;;
4857;SDS011;58975;51.978;8.472;2022-11-27T17:52:14;2.53;;;1.40;;
4857;SDS011;58975;51.978;8.472;2022-11-27T17:57:11;4.93;;;1.60;;
4857;SDS011;58975;51.978;8.472;2022-11-27T18:02:08;3.30;;;1.52;;
4857;SDS011;58975;51.978;8.472;2022-11-27T18:07:06;4.40;;;1.90;;
4857;SDS011;58975;51.978;8.472;2022-11-27T18:12:03;3.90;;;1.60;;
4857;SDS011;58975;51.978;8.472;2022-11-27T18:17:01;2.17;;;1.67;;
4857;SDS011;58975;51.978;8.472;2022-11-27T18:26:56;1.40;;;1.10;;
4857;SDS011;58975;51.978;8.472;2022-11-27T18:32:04;4.22;;;1.35;;
4857;SDS011;58975;51.978;8.472;2022-11-27T18:37:01;8.27;;;1.40;;
4857;SDS011;58975;51.978;8.472;2022-11-27T18:41:58;4.32;;;2.00;;
4857;SDS011;58975;51.978;8.472;2022-11-27T18:46:54;2.38;;;1.48;;
4857;SDS011;58975;51.978;8.472;2022-11-27T18:51:51;2.80;;;1.75;;
4857;SDS011;58975;51.978;8.472;2022-11-27T18:56:48;2.73;;;1.50;;
4857;SDS011;58975;51.978;8.472;2022-11-27T19:01:45;2.63;;;1.65;;
4857;SDS011;58975;51.978;8.472;2022-11-27T19:06:41;2.45;;;1.75;;
4857;SDS011;58975;51.978;8.472;2022-11-27T19:11:39;2.80;;;1.70;;
4857;SDS011;58975;51.978;8.472;2022-11-27T19:16:37;6.43;;;2.22;;
4857;SDS011;58975;51.978;8.472;2022-11-27T19:21:39;2.30;;;1.60;;
4857;SDS011;58975;51.978;8.472;2022-11-27T19:26:35;1.55;;;1.15;;
4857;SDS011;58975;51.978;8.472;2022-11-27T19:31:32;2.92;;;1.67;;
4857;SDS011;58975;51.978;8.472;2022-11-27T19:36:32;4.78;;;1.70;;
4857;SDS011;58975;51.978;8.472;2022-11-27T19:41:29;2.00;;;1.60;;
4857;SDS011;58975;51.978;8.472;2022-11-27T19:46:28;1.70;;;1.47;;
4857;SDS011;58975;51.978;8.472;2022-11-27T19:51:26;3.08;;;2.15;;
4857;SDS011;58975;51.978;8.472;2022-11-27T19:56:23;4.47;;;2.00;;
4857;SDS011;58975;51.978;8.472;2022-11-27T20:01:22;7.25;;;2.20;;
4857;SDS011;58975;51.978;8.472;2022-11-27T20:06:20;4.88;;;1.90;;
4857;SDS011;58975;51.978;8.472;2022-11-27T20:11:19;4.45;;;2.28;;
4857;SDS011;58975;51.978;8.472;2022-11-27T20:16:18;4.85;;;1.88;;
4857;SDS011;58975;51.978;8.472;2022-11-27T20:21:17;4.97;;;2.25;;
4857;SDS011;58975;51.978;8.472;2022-11-27T20:26:16;5.80;;;2.13;;
4857;SDS011;58975;51.978;8.472;2022-11-27T20:31:16;6.15;;;2.00;;
4857;SDS011;58975;51.978;8.472;2022-11-27T20:36:36;4.38;;;2.50;;
4857;SDS011;58975;51.978;8.472;2022-11-27T20:41:34;6.75;;;2.65;;
4857;SDS011;58975;51.978;8.472;2022-11-27T20:46:30;6.90;;;3.08;;
4857;SDS011;58975;51.978;8.472;2022-11-27T20:51:28;12.65;;;2.97;;
4857;SDS011;58975;51.978;8.472;2022-11-27T20:56:29;6.50;;;3.30;;
4857;SDS011;58975;51.978;8.472;2022-11-27T21:01:30;7.80;;;3.03;;
4857;SDS011;58975;51.978;8.472;2022-11-27T21:06:29;5.50;;;3.08;;
4857;SDS011;58975;51.978;8.472;2022-11-27T21:11:27;6.75;;;3.28;;
4857;SDS011;58975;51.978;8.472;2022-11-27T21:16:26;10.27;;;3.58;;
4857;SDS011;58975;51.978;8.472;2022-11-27T21:21:24;5.72;;;3.42;;
4857;SDS011;58975;51.978;8.472;2022-11-27T21:26:20;5.18;;;3.10;;
4857;SDS011;58975;51.978;8.472;2022-11-27T21:31:19;5.75;;;3.50;;
4857;SDS011;58975;51.978;8.472;2022-11-27T21:36:19;7.63;;;3.58;;
4857;SDS011;58975;51.978;8.472;2022-11-27T21:41:17;6.68;;;3.35;;
4857;SDS011;58975;51.978;8.472;2022-11-27T21:46:16;10.35;;;4.05;;
4857;SDS011;58975;51.978;8.472;2022-11-27T21:51:14;4.88;;;3.08;;
4857;SDS011;58975;51.978;8.472;2022-11-27T21:56:12;5.45;;;3.85;;
4857;SDS011;58975;51.978;8.472;2022-11-27T22:01:14;9.65;;;3.72;;
4857;SDS011;58975;51.978;8.472;2022-11-27T22:06:13;7.55;;;3.25;;
4857;SDS011;58975;51.978;8.472;2022-11-27T22:11:12;10.02;;;2.92;;
4857;SDS011;58975;51.978;8.472;2022-11-27T22:16:11;6.22;;;2.63;;
4857;SDS011;58975;51.978;8.472;2022-11-27T22:21:13;4.25;;;2.80;;
4857;SDS011;58975;51.978;8.472;2022-11-27T22:26:12;4.95;;;3.15;;
4857;SDS011;58975;51.978;8.472;2022-11-27T22:31:12;5.28;;;2.90;;
4857;SDS011;58975;51.978;8.472;2022-11-27T22:41:10;4.45;;;3.22;;
4857;SDS011;58975;51.978;8.472;2022-11-27T22:46:08;5.00;;;3.10;;
4857;SDS011;58975;51.978;8.472;2022-11-27T22:51:06;3.75;;;3.03;;
4857;SDS011;58975;51.978;8.472;2022-11-27T22:56:07;3.83;;;2.40;;
4857;SDS011;58975;51.978;8.472;2022-11-27T23:01:07;7.03;;;3.67;;
4857;SDS011;58975;51.978;8.472;2022-11-27T23:06:11;6.80;;;3.38;;
4857;SDS011;58975;51.978;8.472;2022-11-27T23:11:12;8.80;;;3.50;;
4857;SDS011;58975;51.978;8.472;2022-11-27T23:16:10;7.13;;;3.70;;
4857;SDS011;58975;51.978;8.472;2022-11-27T23:21:08;4.45;;;3.13;;
4857;SDS011;58975;51.978;8.472;2022-11-27T23:26:07;4.45;;;3.22;;
4857;SDS011;58975;51.978;8.472;2022-11-27T23:31:14;4.47;;;3.05;;
4857;SDS011;58975;51.978;8.472;2022-11-27T23:36:29;5.80;;;3.47;;
4857;SDS011;58975;51.978;8.472;2022-11-27T23:41:27;5.00;;;3.38;;
4857;SDS011;58975;51.978;8.472;2022-11-27T23:46:25;15.55;;;4.45;;
4857;SDS011;58975;51.978;8.472;2022-11-27T23:51:24;5.30;;;3.45;;
4857;SDS011;58975;51.978;8.472;2022-11-27T23:56:23;4.75;;;3.60;;
